sensor_id;sensor_type;location;lat;lon;timestamp;pressure;altitude;pressure_sealevel;temperature;humidity
69982;BME280;57319;56.274;43.980;2024-01-27T00:01:13;99724.09;;;-7.58;99.94
69982;BME280;57319;56.274;43.980;2024-01-27T00:03:39;99723.88;;;-7.48;100.00
69982;BME280;57319;56.274;43.980;2024-01-27T00:06:05;99725.50;;;-7.48;100.00
69982;BME280;57319;56.274;43.980;2024-01-27T00:08:30;99724.91;;;-7.44;100.00
69982;BME280;57319;56.274;43.980;2024-01-27T00:10:56;99730.78;;;-7.44;100.00
69982;BME280;57319;56.274;43.980;2024-01-27T00:13:22;99727.50;;;-7.43;100.00
69982;BME280;57319;56.274;43.980;2024-01-27T00:15:47;99726.91;;;-7.39;100.00
69982;BME280;57319;56.274;43.980;2024-01-27T00:18:15;99728.78;;;-7.50;100.00
69982;BME280;57319;56.274;43.980;2024-01-27T00:20:41;99722.31;;;-7.46;100.00
69982;BME280;57319;56.274;43.980;2024-01-27T00:23:07;99725.09;;;-7.41;100.00
69982;BME280;57319;56.274;43.980;2024-01-27T00:25:33;99729.31;;;-7.40;100.00
69982;BME280;57319;56.274;43.980;2024-01-27T00:27:59;99728.66;;;-7.38;100.00
69982;BME280;57319;56.274;43.980;2024-01-27T00:30:24;99722.94;;;-7.35;100.00
69982;BME280;57319;56.274;43.980;2024-01-27T00:32:51;99732.09;;;-7.36;100.00
69982;BME280;57319;56.274;43.980;2024-01-27T00:35:17;99725.34;;;-7.37;100.00
69982;BME280;57319;56.274;43.980;2024-01-27T00:37:43;99730.63;;;-7.32;100.00
69982;BME280;57319;56.274;43.980;2024-01-27T00:40:10;99726.47;;;-7.31;100.00
69982;BME280;57319;56.274;43.980;2024-01-27T00:42:37;99731.41;;;-7.33;100.00
69982;BME280;57319;56.274;43.980;2024-01-27T00:45:06;99733.22;;;-7.30;100.00
69982;BME280;57319;56.274;43.980;2024-01-27T00:47:31;99727.44;;;-7.29;100.00
69982;BME280;57319;56.274;43.980;2024-01-27T00:49:57;99734.00;;;-7.31;100.00
69982;BME280;57319;56.274;43.980;2024-01-27T00:52:23;99734.75;;;-7.33;100.00
69982;BME280;57319;56.274;43.980;2024-01-27T00:54:49;99734.75;;;-7.33;100.00
69982;BME280;57319;56.274;43.980;2024-01-27T00:57:15;99731.22;;;-7.36;100.00
69982;BME280;57319;56.274;43.980;2024-01-27T00:59:41;99728.22;;;-7.30;100.00
69982;BME280;57319;56.274;43.980;2024-01-27T01:02:07;99735.44;;;-7.35;100.00
69982;BME280;57319;56.274;43.980;2024-01-27T01:04:32;99734.50;;;-7.37;100.00
69982;BME280;57319;56.274;43.980;2024-01-27T01:06:59;99737.94;;;-7.35;100.00
69982;BME280;57319;56.274;43.980;2024-01-27T01:09:25;99736.41;;;-7.33;100.00
69982;BME280;57319;56.274;43.980;2024-01-27T01:11:51;99733.81;;;-7.35;100.00
69982;BME280;57319;56.274;43.980;2024-01-27T01:14:17;99739.00;;;-7.31;100.00
69982;BME280;57319;56.274;43.980;2024-01-27T01:16:43;99737.34;;;-7.31;100.00
69982;BME280;57319;56.274;43.980;2024-01-27T01:19:08;99736.41;;;-7.33;100.00
69982;BME280;57319;56.274;43.980;2024-01-27T01:21:34;99741.53;;;-7.45;100.00
69982;BME280;57319;56.274;43.980;2024-01-27T01:24:00;99735.19;;;-7.40;100.00
69982;BME280;57319;56.274;43.980;2024-01-27T01:26:25;99736.41;;;-7.33;100.00
69982;BME280;57319;56.274;43.980;2024-01-27T01:28:52;99734.66;;;-7.34;100.00
69982;BME280;57319;56.274;43.980;2024-01-27T01:31:17;99739.97;;;-7.29;100.00
69982;BME280;57319;56.274;43.980;2024-01-27T01:33:43;99738.13;;;-7.32;100.00
69982;BME280;57319;56.274;43.980;2024-01-27T01:36:09;99743.94;;;-7.46;100.00
69982;BME280;57319;56.274;43.980;2024-01-27T01:38:35;99741.44;;;-7.46;100.00
69982;BME280;57319;56.274;43.980;2024-01-27T01:41:01;99738.66;;;-7.38;100.00
69982;BME280;57319;56.274;43.980;2024-01-27T01:43:27;99745.72;;;-7.30;100.00
69982;BME280;57319;56.274;43.980;2024-01-27T01:45:52;99743.66;;;-7.23;100.00
69982;BME280;57319;56.274;43.980;2024-01-27T01:48:21;99740.81;;;-7.29;100.00
69982;BME280;57319;56.274;43.980;2024-01-27T01:50:47;99738.25;;;-7.72;98.08
69982;BME280;57319;56.274;43.980;2024-01-27T01:53:13;99739.34;;;-7.82;98.50
69982;BME280;57319;56.274;43.980;2024-01-27T01:55:39;99744.03;;;-7.45;99.51
69982;BME280;57319;56.274;43.980;2024-01-27T01:58:05;99750.81;;;-7.29;99.95
69982;BME280;57319;56.274;43.980;2024-01-27T02:00:32;99744.16;;;-7.28;100.00
69982;BME280;57319;56.274;43.980;2024-01-27T02:02:58;99749.16;;;-7.28;100.00
69982;BME280;57319;56.274;43.980;2024-01-27T02:05:24;99744.34;;;-7.40;99.71
69982;BME280;57319;56.274;43.980;2024-01-27T02:07:50;99744.84;;;-7.31;100.00
69982;BME280;57319;56.274;43.980;2024-01-27T02:10:17;99745.56;;;-7.62;98.39
69982;BME280;57319;56.274;43.980;2024-01-27T02:12:45;99751.16;;;-7.38;99.55
69982;BME280;57319;56.274;43.980;2024-01-27T02:15:11;99747.25;;;-7.33;99.59
69982;BME280;57319;56.274;43.980;2024-01-27T02:17:41;99751.28;;;-7.21;100.00
69982;BME280;57319;56.274;43.980;2024-01-27T02:20:07;99749.88;;;-7.16;100.00
69982;BME280;57319;56.274;43.980;2024-01-27T02:22:34;99742.03;;;-7.22;100.00
69982;BME280;57319;56.274;43.980;2024-01-27T02:24:59;99756.69;;;-7.13;100.00
69982;BME280;57319;56.274;43.980;2024-01-27T02:27:25;99749.19;;;-7.13;100.00
69982;BME280;57319;56.274;43.980;2024-01-27T02:29:51;99745.66;;;-7.17;100.00
69982;BME280;57319;56.274;43.980;2024-01-27T02:32:16;99747.38;;;-7.16;100.00
69982;BME280;57319;56.274;43.980;2024-01-27T02:34:42;99747.16;;;-7.06;100.00
69982;BME280;57319;56.274;43.980;2024-01-27T02:37:09;99758.09;;;-7.04;100.00
69982;BME280;57319;56.274;43.980;2024-01-27T02:39:34;99753.97;;;-7.03;100.00
69982;BME280;57319;56.274;43.980;2024-01-27T02:42:00;99757.25;;;-7.04;100.00
69982;BME280;57319;56.274;43.980;2024-01-27T02:44:26;99758.94;;;-7.18;100.00
69982;BME280;57319;56.274;43.980;2024-01-27T02:46:51;99759.38;;;-7.10;100.00
69982;BME280;57319;56.274;43.980;2024-01-27T02:49:17;99761.38;;;-7.05;100.00
69982;BME280;57319;56.274;43.980;2024-01-27T02:51:43;99763.78;;;-7.06;100.00
69982;BME280;57319;56.274;43.980;2024-01-27T02:54:09;99763.00;;;-7.05;100.00
69982;BME280;57319;56.274;43.980;2024-01-27T02:56:35;99763.34;;;-7.14;100.00
69982;BME280;57319;56.274;43.980;2024-01-27T02:59:01;99770.81;;;-7.01;100.00
69982;BME280;57319;56.274;43.980;2024-01-27T03:01:26;99774.16;;;-7.00;100.00
69982;BME280;57319;56.274;43.980;2024-01-27T03:03:52;99766.47;;;-7.03;100.00
69982;BME280;57319;56.274;43.980;2024-01-27T03:06:18;99766.03;;;-7.11;100.00
69982;BME280;57319;56.274;43.980;2024-01-27T03:08:43;99766.19;;;-7.08;100.00
69982;BME280;57319;56.274;43.980;2024-01-27T03:11:09;99772.16;;;-7.06;100.00
69982;BME280;57319;56.274;43.980;2024-01-27T03:13:35;99773.91;;;-7.05;100.00
69982;BME280;57319;56.274;43.980;2024-01-27T03:16:00;99780.59;;;-7.04;100.00
69982;BME280;57319;56.274;43.980;2024-01-27T03:18:26;99771.66;;;-7.00;100.00
69982;BME280;57319;56.274;43.980;2024-01-27T03:20:52;99777.59;;;-6.98;100.00
69982;BME280;57319;56.274;43.980;2024-01-27T03:23:17;99777.44;;;-7.01;100.00
69982;BME280;57319;56.274;43.980;2024-01-27T03:25:43;99775.69;;;-7.02;100.00
69982;BME280;57319;56.274;43.980;2024-01-27T03:28:08;99780.81;;;-7.01;100.00
69982;BME280;57319;56.274;43.980;2024-01-27T03:30:34;99791.50;;;-7.03;100.00
69982;BME280;57319;56.274;43.980;2024-01-27T03:33:00;99789.06;;;-7.17;100.00
69982;BME280;57319;56.274;43.980;2024-01-27T03:35:26;99791.72;;;-7.13;100.00
69982;BME280;57319;56.274;43.980;2024-01-27T03:37:51;99800.47;;;-7.07;100.00
69982;BME280;57319;56.274;43.980;2024-01-27T03:40:17;99794.00;;;-7.03;100.00
69982;BME280;57319;56.274;43.980;2024-01-27T03:42:44;99789.94;;;-7.01;100.00
69982;BME280;57319;56.274;43.980;2024-01-27T03:45:09;99796.69;;;-7.00;100.00
69982;BME280;57319;56.274;43.980;2024-01-27T03:47:35;99793.41;;;-6.99;100.00
69982;BME280;57319;56.274;43.980;2024-01-27T03:50:00;99798.31;;;-7.01;100.00
69982;BME280;57319;56.274;43.980;2024-01-27T03:52:26;99800.84;;;-7.01;100.00
69982;BME280;57319;56.274;43.980;2024-01-27T03:54:52;99808.66;;;-7.09;100.00
69982;BME280;57319;56.274;43.980;2024-01-27T03:57:18;99808.81;;;-7.06;100.00
69982;BME280;57319;56.274;43.980;2024-01-27T03:59:44;99806.22;;;-7.08;100.00
69982;BME280;57319;56.274;43.980;2024-01-27T04:02:09;99808.97;;;-7.18;100.00
69982;BME280;57319;56.274;43.980;2024-01-27T04:04:35;99806.31;;;-7.06;100.00
69982;BME280;57319;56.274;43.980;2024-01-27T04:07:00;99812.19;;;-7.06;100.00
69982;BME280;57319;56.274;43.980;2024-01-27T04:09:27;99817.97;;;-7.07;100.00
69982;BME280;57319;56.274;43.980;2024-01-27T04:11:53;99807.63;;;-7.13;100.00
69982;BME280;57319;56.274;43.980;2024-01-27T04:14:18;99812.13;;;-7.07;100.00
69982;BME280;57319;56.274;43.980;2024-01-27T04:16:44;99817.63;;;-7.13;100.00
69982;BME280;57319;56.274;43.980;2024-01-27T04:19:09;99812.72;;;-7.11;100.00
69982;BME280;57319;56.274;43.980;2024-01-27T04:21:35;99814.63;;;-7.07;100.00
69982;BME280;57319;56.274;43.980;2024-01-27T04:24:01;99821.31;;;-7.06;100.00
69982;BME280;57319;56.274;43.980;2024-01-27T04:26:26;99817.13;;;-7.07;100.00
69982;BME280;57319;56.274;43.980;2024-01-27T04:28:52;99818.06;;;-7.05;100.00
69982;BME280;57319;56.274;43.980;2024-01-27T04:31:18;99822.13;;;-7.36;100.00
69982;BME280;57319;56.274;43.980;2024-01-27T04:33:43;99827.09;;;-7.22;100.00
69982;BME280;57319;56.274;43.980;2024-01-27T04:36:10;99820.88;;;-7.84;100.00
69982;BME280;57319;56.274;43.980;2024-01-27T04:38:36;99822.78;;;-7.80;100.00
69982;BME280;57319;56.274;43.980;2024-01-27T04:41:02;99833.84;;;-7.35;100.00
69982;BME280;57319;56.274;43.980;2024-01-27T04:43:28;99829.94;;;-7.16;100.00
69982;BME280;57319;56.274;43.980;2024-01-27T04:45:54;99832.50;;;-7.29;100.00
69982;BME280;57319;56.274;43.980;2024-01-27T04:48:20;99830.91;;;-7.14;100.00
69982;BME280;57319;56.274;43.980;2024-01-27T04:50:46;99838.00;;;-7.07;100.00
69982;BME280;57319;56.274;43.980;2024-01-27T04:53:12;99840.66;;;-7.04;100.00
69982;BME280;57319;56.274;43.980;2024-01-27T04:55:38;99845.94;;;-7.27;100.00
69982;BME280;57319;56.274;43.980;2024-01-27T04:58:04;99844.00;;;-7.18;100.00
69982;BME280;57319;56.274;43.980;2024-01-27T05:00:30;99841.84;;;-7.12;100.00
69982;BME280;57319;56.274;43.980;2024-01-27T05:02:56;99849.06;;;-7.03;100.00
69982;BME280;57319;56.274;43.980;2024-01-27T05:05:23;99855.16;;;-6.98;100.00
69982;BME280;57319;56.274;43.980;2024-01-27T05:07:48;99852.66;;;-6.98;100.00
69982;BME280;57319;56.274;43.980;2024-01-27T05:10:15;99849.88;;;-7.31;100.00
69982;BME280;57319;56.274;43.980;2024-01-27T05:12:41;99856.19;;;-7.38;100.00
69982;BME280;57319;56.274;43.980;2024-01-27T05:15:07;99855.53;;;-7.20;100.00
69982;BME280;57319;56.274;43.980;2024-01-27T05:17:33;99859.19;;;-7.15;100.00
69982;BME280;57319;56.274;43.980;2024-01-27T05:19:59;99860.25;;;-7.11;100.00
69982;BME280;57319;56.274;43.980;2024-01-27T05:22:25;99860.97;;;-6.99;100.00
69982;BME280;57319;56.274;43.980;2024-01-27T05:24:51;99861.75;;;-7.00;100.00
69982;BME280;57319;56.274;43.980;2024-01-27T05:27:16;99859.69;;;-6.92;100.00
69982;BME280;57319;56.274;43.980;2024-01-27T05:29:42;99860.78;;;-7.02;100.00
69982;BME280;57319;56.274;43.980;2024-01-27T05:32:08;99863.16;;;-6.90;100.00
69982;BME280;57319;56.274;43.980;2024-01-27T05:34:34;99862.78;;;-6.96;100.00
69982;BME280;57319;56.274;43.980;2024-01-27T05:37:00;99868.81;;;-6.93;100.00
69982;BME280;57319;56.274;43.980;2024-01-27T05:39:26;99869.69;;;-7.62;100.00
69982;BME280;57319;56.274;43.980;2024-01-27T05:41:51;99875.91;;;-7.42;100.00
69982;BME280;57319;56.274;43.980;2024-01-27T05:44:17;99874.47;;;-7.65;100.00
69982;BME280;57319;56.274;43.980;2024-01-27T05:46:42;99877.09;;;-7.77;100.00
69982;BME280;57319;56.274;43.980;2024-01-27T05:49:08;99875.06;;;-7.56;100.00
69982;BME280;57319;56.274;43.980;2024-01-27T05:51:34;99877.56;;;-7.56;100.00
69982;BME280;57319;56.274;43.980;2024-01-27T05:53:59;99881.72;;;-7.28;100.00
69982;BME280;57319;56.274;43.980;2024-01-27T05:56:25;99876.97;;;-7.10;100.00
69982;BME280;57319;56.274;43.980;2024-01-27T05:58:52;99881.72;;;-6.87;100.00
69982;BME280;57319;56.274;43.980;2024-01-27T06:01:18;99884.75;;;-7.06;100.00
69982;BME280;57319;56.274;43.980;2024-01-27T06:03:44;99892.53;;;-7.01;100.00
69982;BME280;57319;56.274;43.980;2024-01-27T06:06:10;99888.09;;;-6.92;100.00
69982;BME280;57319;56.274;43.980;2024-01-27T06:08:36;99887.66;;;-6.85;100.00
69982;BME280;57319;56.274;43.980;2024-01-27T06:11:02;99890.28;;;-6.68;100.00
69982;BME280;57319;56.274;43.980;2024-01-27T06:13:31;99897.47;;;-6.74;100.00
69982;BME280;57319;56.274;43.980;2024-01-27T06:15:58;99892.44;;;-6.74;100.00
69982;BME280;57319;56.274;43.980;2024-01-27T06:18:24;99894.88;;;-6.61;100.00
69982;BME280;57319;56.274;43.980;2024-01-27T06:20:50;99894.88;;;-6.61;100.00
69982;BME280;57319;56.274;43.980;2024-01-27T06:23:15;99895.50;;;-6.50;100.00
69982;BME280;57319;56.274;43.980;2024-01-27T06:25:42;99902.41;;;-6.46;100.00
69982;BME280;57319;56.274;43.980;2024-01-27T06:28:08;99900.78;;;-6.45;100.00
69982;BME280;57319;56.274;43.980;2024-01-27T06:30:34;99903.69;;;-6.53;100.00
69982;BME280;57319;56.274;43.980;2024-01-27T06:33:00;99916.50;;;-6.48;100.00
69982;BME280;57319;56.274;43.980;2024-01-27T06:35:25;99909.25;;;-6.43;100.00
69982;BME280;57319;56.274;43.980;2024-01-27T06:37:51;99909.81;;;-6.62;100.00
69982;BME280;57319;56.274;43.980;2024-01-27T06:40:17;99913.91;;;-6.50;100.00
69982;BME280;57319;56.274;43.980;2024-01-27T06:42:43;99909.41;;;-6.55;100.00
69982;BME280;57319;56.274;43.980;2024-01-27T06:45:09;99914.63;;;-6.37;100.00
69982;BME280;57319;56.274;43.980;2024-01-27T06:47:35;99913.41;;;-6.44;100.00
69982;BME280;57319;56.274;43.980;2024-01-27T06:50:01;99915.78;;;-6.89;100.00
69982;BME280;57319;56.274;43.980;2024-01-27T06:52:29;99918.13;;;-6.92;100.00
69982;BME280;57319;56.274;43.980;2024-01-27T06:54:55;99918.97;;;-6.63;100.00
69982;BME280;57319;56.274;43.980;2024-01-27T06:57:22;99924.63;;;-6.37;100.00
69982;BME280;57319;56.274;43.980;2024-01-27T06:59:50;99933.03;;;-6.22;100.00
69982;BME280;57319;56.274;43.980;2024-01-27T07:02:24;99934.84;;;-6.34;100.00
69982;BME280;57319;56.274;43.980;2024-01-27T07:04:51;99930.34;;;-6.25;100.00
69982;BME280;57319;56.274;43.980;2024-01-27T07:07:16;99934.59;;;-6.09;100.00
69982;BME280;57319;56.274;43.980;2024-01-27T07:09:42;99939.88;;;-6.19;100.00
69982;BME280;57319;56.274;43.980;2024-01-27T07:12:08;99942.03;;;-6.10;100.00
69982;BME280;57319;56.274;43.980;2024-01-27T07:14:34;99943.41;;;-6.01;100.00
69982;BME280;57319;56.274;43.980;2024-01-27T07:17:00;99941.56;;;-6.03;100.00
69982;BME280;57319;56.274;43.980;2024-01-27T07:19:26;99936.22;;;-5.94;100.00
69982;BME280;57319;56.274;43.980;2024-01-27T07:21:52;99935.09;;;-6.00;100.00
69982;BME280;57319;56.274;43.980;2024-01-27T07:24:17;99942.31;;;-6.06;100.00
69982;BME280;57319;56.274;43.980;2024-01-27T07:26:43;99935.53;;;-5.92;100.00
69982;BME280;57319;56.274;43.980;2024-01-27T07:29:09;99942.75;;;-5.97;100.00
69982;BME280;57319;56.274;43.980;2024-01-27T07:31:34;99943.81;;;-6.23;100.00
69982;BME280;57319;56.274;43.980;2024-01-27T07:34:00;99944.34;;;-6.14;100.00
69982;BME280;57319;56.274;43.980;2024-01-27T07:36:26;99941.38;;;-5.91;100.00
69982;BME280;57319;56.274;43.980;2024-01-27T07:38:56;99942.06;;;-5.79;100.00
69982;BME280;57319;56.274;43.980;2024-01-27T07:41:22;99947.25;;;-5.76;100.00
69982;BME280;57319;56.274;43.980;2024-01-27T07:43:47;99958.09;;;-5.77;100.00
69982;BME280;57319;56.274;43.980;2024-01-27T07:46:13;99957.03;;;-5.66;100.00
69982;BME280;57319;56.274;43.980;2024-01-27T07:48:38;99954.34;;;-5.69;100.00
69982;BME280;57319;56.274;43.980;2024-01-27T07:51:04;99955.19;;;-5.53;100.00
69982;BME280;57319;56.274;43.980;2024-01-27T07:53:30;99952.16;;;-5.63;100.00
69982;BME280;57319;56.274;43.980;2024-01-27T07:55:55;99950.91;;;-6.16;100.00
69982;BME280;57319;56.274;43.980;2024-01-27T07:58:21;99955.03;;;-5.71;100.00
69982;BME280;57319;56.274;43.980;2024-01-27T08:00:47;99960.91;;;-5.56;100.00
69982;BME280;57319;56.274;43.980;2024-01-27T08:03:13;99957.75;;;-5.37;100.00
69982;BME280;57319;56.274;43.980;2024-01-27T08:05:38;99958.00;;;-5.32;100.00
69982;BME280;57319;56.274;43.980;2024-01-27T08:08:04;99960.31;;;-5.20;100.00
69982;BME280;57319;56.274;43.980;2024-01-27T08:10:30;99956.91;;;-5.21;100.00
69982;BME280;57319;56.274;43.980;2024-01-27T08:12:55;99953.97;;;-5.14;100.00
69982;BME280;57319;56.274;43.980;2024-01-27T08:15:21;99967.72;;;-5.07;100.00
69982;BME280;57319;56.274;43.980;2024-01-27T08:17:47;99973.59;;;-5.06;100.00
69982;BME280;57319;56.274;43.980;2024-01-27T08:20:12;99967.38;;;-5.13;100.00
69982;BME280;57319;56.274;43.980;2024-01-27T08:22:38;99965.22;;;-5.07;100.00
69982;BME280;57319;56.274;43.980;2024-01-27T08:25:04;99975.00;;;-5.12;100.00
69982;BME280;57319;56.274;43.980;2024-01-27T08:27:30;99976.19;;;-5.05;100.00
69982;BME280;57319;56.274;43.980;2024-01-27T08:29:56;99983.09;;;-5.01;100.00
69982;BME280;57319;56.274;43.980;2024-01-27T08:32:22;99977.31;;;-5.00;100.00
69982;BME280;57319;56.274;43.980;2024-01-27T08:34:47;99981.50;;;-5.15;100.00
69982;BME280;57319;56.274;43.980;2024-01-27T08:37:17;99983.84;;;-5.18;100.00
69982;BME280;57319;56.274;43.980;2024-01-27T08:39:43;99983.78;;;-5.03;100.00
69982;BME280;57319;56.274;43.980;2024-01-27T08:42:09;99984.91;;;-4.98;100.00
69982;BME280;57319;56.274;43.980;2024-01-27T08:44:35;99989.41;;;-4.92;100.00
69982;BME280;57319;56.274;43.980;2024-01-27T08:47:00;99995.38;;;-4.90;100.00
69982;BME280;57319;56.274;43.980;2024-01-27T08:49:26;99986.88;;;-4.92;100.00
69982;BME280;57319;56.274;43.980;2024-01-27T08:51:52;99992.63;;;-5.10;100.00
69982;BME280;57319;56.274;43.980;2024-01-27T08:54:17;99986.44;;;-5.78;99.51
69982;BME280;57319;56.274;43.980;2024-01-27T08:56:43;99982.00;;;-5.97;100.00
69982;BME280;57319;56.274;43.980;2024-01-27T08:59:09;99980.19;;;-5.40;100.00
69982;BME280;57319;56.274;43.980;2024-01-27T09:01:34;99983.09;;;-5.01;99.95
69982;BME280;57319;56.274;43.980;2024-01-27T09:04:00;99992.31;;;-5.16;99.63
69982;BME280;57319;56.274;43.980;2024-01-27T09:06:26;99986.09;;;-4.91;100.00
69982;BME280;57319;56.274;43.980;2024-01-27T09:08:51;99982.84;;;-4.74;100.00
69982;BME280;57319;56.274;43.980;2024-01-27T09:11:17;99984.72;;;-4.70;100.00
69982;BME280;57319;56.274;43.980;2024-01-27T09:13:43;99978.53;;;-4.60;100.00
69982;BME280;57319;56.274;43.980;2024-01-27T09:16:10;99987.34;;;-4.52;100.00
69982;BME280;57319;56.274;43.980;2024-01-27T09:18:39;99985.91;;;-4.47;100.00
69982;BME280;57319;56.274;43.980;2024-01-27T09:21:04;99976.94;;;-4.41;100.00
69982;BME280;57319;56.274;43.980;2024-01-27T09:23:30;99983.84;;;-4.37;100.00
69982;BME280;57319;56.274;43.980;2024-01-27T09:25:56;99977.19;;;-4.37;100.00
69982;BME280;57319;56.274;43.980;2024-01-27T09:28:21;99990.06;;;-4.47;100.00
69982;BME280;57319;56.274;43.980;2024-01-27T09:30:47;99980.00;;;-4.31;100.00
69982;BME280;57319;56.274;43.980;2024-01-27T09:33:13;99985.25;;;-4.26;100.00
69982;BME280;57319;56.274;43.980;2024-01-27T09:35:38;99986.75;;;-4.13;100.00
69982;BME280;57319;56.274;43.980;2024-01-27T09:38:05;99995.09;;;-4.31;97.97
69982;BME280;57319;56.274;43.980;2024-01-27T09:40:33;99998.84;;;-4.06;100.00
69982;BME280;57319;56.274;43.980;2024-01-27T09:42:59;100000.91;;;-4.48;96.95
69982;BME280;57319;56.274;43.980;2024-01-27T09:45:25;100000.59;;;-4.21;97.65
69982;BME280;57319;56.274;43.980;2024-01-27T09:47:51;100009.53;;;-4.10;97.52
69982;BME280;57319;56.274;43.980;2024-01-27T09:50:17;100012.44;;;-4.02;98.28
69982;BME280;57319;56.274;43.980;2024-01-27T09:52:44;100013.69;;;-3.94;98.70
69982;BME280;57319;56.274;43.980;2024-01-27T09:55:10;100018.94;;;-3.89;99.05
69982;BME280;57319;56.274;43.980;2024-01-27T09:57:39;100018.47;;;-3.99;99.40
69982;BME280;57319;56.274;43.980;2024-01-27T10:00:10;100021.63;;;-4.03;98.90
69982;BME280;57319;56.274;43.980;2024-01-27T10:02:39;100020.97;;;-3.99;100.00
69982;BME280;57319;56.274;43.980;2024-01-27T10:05:08;100019.16;;;-4.01;100.00
69982;BME280;57319;56.274;43.980;2024-01-27T10:07:34;100022.31;;;-4.05;100.00
69982;BME280;57319;56.274;43.980;2024-01-27T10:09:59;100027.44;;;-4.04;100.00
69982;BME280;57319;56.274;43.980;2024-01-27T10:12:25;100026.81;;;-4.00;100.00
69982;BME280;57319;56.274;43.980;2024-01-27T10:14:53;100027.75;;;-3.98;100.00
69982;BME280;57319;56.274;43.980;2024-01-27T10:17:22;100030.47;;;-3.93;99.99
69982;BME280;57319;56.274;43.980;2024-01-27T10:20:00;100022.47;;;-3.86;100.00
69982;BME280;57319;56.274;43.980;2024-01-27T10:22:37;100023.09;;;-3.90;99.31
69982;BME280;57319;56.274;43.980;2024-01-27T10:25:04;100023.09;;;-3.90;100.00
69982;BME280;57319;56.274;43.980;2024-01-27T10:27:30;100022.41;;;-3.87;99.07
69982;BME280;57319;56.274;43.980;2024-01-27T10:29:56;100025.69;;;-3.88;98.50
69982;BME280;57319;56.274;43.980;2024-01-27T10:32:21;100035.81;;;-3.70;99.39
69982;BME280;57319;56.274;43.980;2024-01-27T10:35:04;100041.72;;;-4.52;94.44
69982;BME280;57319;56.274;43.980;2024-01-27T10:37:31;100042.97;;;-3.95;96.27
69982;BME280;57319;56.274;43.980;2024-01-27T10:40:01;100044.28;;;-3.68;96.96
69982;BME280;57319;56.274;43.980;2024-01-27T10:42:29;100044.09;;;-3.55;98.13
69982;BME280;57319;56.274;43.980;2024-01-27T10:44:58;100050.16;;;-3.51;99.00
69982;BME280;57319;56.274;43.980;2024-01-27T10:47:27;100046.31;;;-3.96;94.13
69982;BME280;57319;56.274;43.980;2024-01-27T10:49:55;100054.66;;;-3.62;97.42
69982;BME280;57319;56.274;43.980;2024-01-27T10:52:24;100061.69;;;-4.39;94.09
69982;BME280;57319;56.274;43.980;2024-01-27T10:54:58;100064.69;;;-4.30;94.26
69982;BME280;57319;56.274;43.980;2024-01-27T10:57:32;100064.41;;;-3.85;95.29
69982;BME280;57319;56.274;43.980;2024-01-27T11:00:00;100065.47;;;-3.98;93.82
69982;BME280;57319;56.274;43.980;2024-01-27T11:02:28;100071.56;;;-3.60;94.78
69982;BME280;57319;56.274;43.980;2024-01-27T11:04:58;100075.66;;;-3.44;95.48
69982;BME280;57319;56.274;43.980;2024-01-27T11:07:25;100084.75;;;-3.47;94.87
69982;BME280;57319;56.274;43.980;2024-01-27T11:09:52;100083.50;;;-3.55;92.66
69982;BME280;57319;56.274;43.980;2024-01-27T11:12:22;100095.66;;;-3.47;94.78
69982;BME280;57319;56.274;43.980;2024-01-27T11:14:48;100094.50;;;-3.53;93.96
69982;BME280;57319;56.274;43.980;2024-01-27T11:17:17;100085.91;;;-3.41;96.10
69982;BME280;57319;56.274;43.980;2024-01-27T11:19:46;100092.66;;;-3.39;95.97
69982;BME280;57319;56.274;43.980;2024-01-27T11:22:29;100092.88;;;-3.35;97.12
69982;BME280;57319;56.274;43.980;2024-01-27T11:25:08;100099.56;;;-3.35;97.86
69982;BME280;57319;56.274;43.980;2024-01-27T11:27:41;100096.97;;;-3.37;98.11
69982;BME280;57319;56.274;43.980;2024-01-27T11:30:26;100097.94;;;-3.35;98.99
69982;BME280;57319;56.274;43.980;2024-01-27T11:32:56;100093.47;;;-3.41;99.31
69982;BME280;57319;56.274;43.980;2024-01-27T11:35:22;100094.25;;;-3.42;99.67
69982;BME280;57319;56.274;43.980;2024-01-27T11:37:48;100092.50;;;-3.43;100.00
69982;BME280;57319;56.274;43.980;2024-01-27T11:40:14;100097.19;;;-3.50;99.76
69982;BME280;57319;56.274;43.980;2024-01-27T11:42:41;100099.78;;;-3.49;100.00
69982;BME280;57319;56.274;43.980;2024-01-27T11:45:10;100101.97;;;-3.55;100.00
69982;BME280;57319;56.274;43.980;2024-01-27T11:47:36;100111.09;;;-3.57;100.00
69982;BME280;57319;56.274;43.980;2024-01-27T11:50:02;100113.63;;;-3.57;100.00
69982;BME280;57319;56.274;43.980;2024-01-27T11:52:30;100117.09;;;-3.71;99.51
69982;BME280;57319;56.274;43.980;2024-01-27T11:54:59;100117.66;;;-3.77;98.97
69982;BME280;57319;56.274;43.980;2024-01-27T11:57:26;100125.66;;;-3.68;100.00
69982;BME280;57319;56.274;43.980;2024-01-27T11:59:52;100124.97;;;-3.65;100.00
69982;BME280;57319;56.274;43.980;2024-01-27T12:02:19;100120.56;;;-3.69;100.00
69982;BME280;57319;56.274;43.980;2024-01-27T12:04:44;100132.09;;;-3.73;100.00
69982;BME280;57319;56.274;43.980;2024-01-27T12:07:10;100131.25;;;-3.73;100.00
69982;BME280;57319;56.274;43.980;2024-01-27T12:09:36;100131.81;;;-3.79;100.00
69982;BME280;57319;56.274;43.980;2024-01-27T12:12:03;100132.75;;;-3.77;100.00
69982;BME280;57319;56.274;43.980;2024-01-27T12:14:44;100137.69;;;-3.79;100.00
69982;BME280;57319;56.274;43.980;2024-01-27T12:17:10;100141.41;;;-3.88;100.00
69982;BME280;57319;56.274;43.980;2024-01-27T12:19:45;100145.38;;;-3.92;100.00
69982;BME280;57319;56.274;43.980;2024-01-27T12:22:24;100146.34;;;-4.06;100.00
69982;BME280;57319;56.274;43.980;2024-01-27T12:24:51;100148.78;;;-4.08;100.00
69982;BME280;57319;56.274;43.980;2024-01-27T12:27:17;100146.97;;;-4.11;100.00
69982;BME280;57319;56.274;43.980;2024-01-27T12:29:43;100155.81;;;-4.17;99.81
69982;BME280;57319;56.274;43.980;2024-01-27T12:32:09;100147.63;;;-4.30;99.04
69982;BME280;57319;56.274;43.980;2024-01-27T12:34:41;100159.81;;;-4.21;99.32
69982;BME280;57319;56.274;43.980;2024-01-27T12:37:08;100163.66;;;-4.28;98.81